Time;durP1;ratioP1;P1;durP2;ratioP2;P2;SDS_P1;SDS_P2;PMS_P1;PMS_P2;Temp;Humidity;BMP_temperature;BMP_pressure;BME280_temperature;BME280_humidity;BME280_pressure;Samples;Min_cycle;Max_cycle;Signal;HPM_P1;HPM_P2
2024/04/07 00:01:52;;;;;;;0.70;0.52;;;;;;;22.08;33.86;99889.97;4478593;28;20118;-47
2024/04/07 00:04:04;;;;;;;2.05;0.60;;;;;;;22.08;33.07;99880.50;4480979;28;20042;-47
2024/04/07 00:06:14;;;;;;;1.27;0.82;;;;;;;22.08;32.73;99883.38;4479599;28;20041;-46
2024/04/07 00:08:24;;;;;;;1.10;0.63;;;;;;;22.07;33.15;99876.81;4480577;28;20051;-48
2024/04/07 00:10:36;;;;;;;1.05;0.60;;;;;;;22.06;33.74;99880.91;4479489;28;20616;-48
2024/04/07 00:12:46;;;;;;;1.65;0.60;;;;;;;22.05;34.67;99890.75;4480132;28;20048;-46
2024/04/07 00:14:56;;;;;;;0.88;0.50;;;;;;;22.06;35.19;99898.16;4480051;28;20490;-47
2024/04/07 00:17:07;;;;;;;0.90;0.50;;;;;;;22.05;35.38;99899.38;4479930;28;20027;-48
2024/04/07 00:19:17;;;;;;;0.93;0.60;;;;;;;22.06;34.69;99888.69;4480732;28;22496;-49
2024/04/07 00:21:28;;;;;;;1.30;0.50;;;;;;;22.05;34.99;99887.03;4481001;28;20076;-46
2024/04/07 00:23:38;;;;;;;0.80;0.50;;;;;;;22.05;34.44;99895.66;4479962;28;30144;-47
2024/04/07 00:25:48;;;;;;;1.55;0.65;;;;;;;22.04;34.29;99897.72;4480741;28;20057;-48
2024/04/07 00:27:59;;;;;;;1.67;0.57;;;;;;;22.04;33.57;99903.47;4480294;28;20556;-47
2024/04/07 00:30:10;;;;;;;0.90;0.60;;;;;;;22.04;34.26;99891.16;4462116;28;20082;-46
2024/04/07 00:32:20;;;;;;;0.90;0.52;;;;;;;22.04;33.94;99900.59;4478124;28;20149;-47
2024/04/07 00:34:30;;;;;;;1.10;0.70;;;;;;;22.04;33.77;99891.97;4479652;28;20507;-48
2024/04/07 00:36:41;;;;;;;1.45;0.50;;;;;;;22.03;34.26;99907.56;4479617;28;26533;-47
2024/04/07 00:38:51;;;;;;;0.60;0.50;;;;;;;22.04;35.38;99900.59;4479135;28;20041;-47
2024/04/07 00:41:02;;;;;;;0.80;0.60;;;;;;;22.03;34.50;99896.06;4479935;28;20401;-48
2024/04/07 00:43:12;;;;;;;1.20;0.60;;;;;;;22.03;34.34;99896.06;4477566;28;20134;-47
2024/04/07 00:45:23;;;;;;;0.50;0.50;;;;;;;22.04;34.42;99899.78;4480936;28;20178;-47
2024/04/07 00:47:33;;;;;;;0.50;0.50;;;;;;;22.03;33.96;99907.56;4479844;28;20508;-48
2024/04/07 00:49:46;;;;;;;1.00;0.50;;;;;;;22.02;33.37;99903.00;4479567;28;20030;-48
2024/04/07 00:51:58;;;;;;;0.57;0.50;;;;;;;22.03;33.68;99906.72;4479452;28;20043;-50
2024/04/07 00:54:09;;;;;;;0.77;0.52;;;;;;;22.03;33.31;99926.84;4479717;28;20581;-48
2024/04/07 00:56:20;;;;;;;0.75;0.55;;;;;;;22.02;33.02;99907.97;4479434;28;20046;-51
2024/04/07 00:58:30;;;;;;;1.10;0.60;;;;;;;22.01;33.12;99918.63;4480392;28;20609;-48
2024/04/07 01:00:44;;;;;;;1.02;0.50;;;;;;;22.02;32.62;99919.44;4468073;28;20583;-49
2024/04/07 01:02:54;;;;;;;0.80;0.50;;;;;;;22.02;32.83;99902.22;4480751;28;20600;-47
2024/04/07 01:05:05;;;;;;;0.50;0.50;;;;;;;22.01;33.11;99900.53;4480070;28;20050;-50
2024/04/07 01:07:16;;;;;;;0.77;0.50;;;;;;;22.02;33.09;99902.22;4479301;28;20526;-47
2024/04/07 01:09:27;;;;;;;0.80;0.40;;;;;;;22.02;32.87;99903.00;4480261;28;20039;-47
2024/04/07 01:11:38;;;;;;;1.15;0.60;;;;;;;22.01;32.95;99901.38;4468169;28;20031;-47
2024/04/07 01:13:48;;;;;;;0.75;0.60;;;;;;;22.02;32.85;99896.47;4479441;28;20043;-47
2024/04/07 01:15:58;;;;;;;2.15;0.55;;;;;;;22.01;32.58;99892.75;4477421;28;20418;-50
2024/04/07 01:18:09;;;;;;;0.50;0.50;;;;;;;22.01;32.78;99898.50;4478951;28;20043;-48
2024/04/07 01:20:19;;;;;;;0.50;0.47;;;;;;;22.00;32.27;99908.34;4479525;28;20046;-49
2024/04/07 01:22:30;;;;;;;1.67;0.50;;;;;;;22.01;32.51;99907.13;4479832;28;20033;-49
2024/04/07 01:24:40;;;;;;;1.23;0.60;;;;;;;22.00;32.59;99911.22;4479631;28;20074;-48
2024/04/07 01:26:50;;;;;;;1.35;0.40;;;;;;;22.00;32.43;99914.09;4478209;28;20057;-49
2024/04/07 01:29:01;;;;;;;1.17;0.50;;;;;;;22.00;32.07;99914.09;4478366;28;21302;-49
2024/04/07 01:31:11;;;;;;;0.52;0.40;;;;;;;22.00;32.33;99914.09;4477383;28;20040;-47
2024/04/07 01:33:22;;;;;;;0.60;0.60;;;;;;;21.99;32.66;99909.56;4478905;28;20046;-47
2024/04/07 01:35:32;;;;;;;1.30;0.68;;;;;;;22.01;32.38;99920.66;4479308;28;20130;-48
2024/04/07 01:37:43;;;;;;;0.73;0.43;;;;;;;22.00;32.56;99925.59;4479464;28;20073;-46
2024/04/07 01:39:53;;;;;;;1.17;0.50;;;;;;;22.01;32.70;99932.16;4480002;28;20046;-49
2024/04/07 01:42:03;;;;;;;0.90;0.50;;;;;;;22.00;32.78;99931.34;4480060;28;20038;-48
2024/04/07 01:44:14;;;;;;;1.42;0.60;;;;;;;22.00;32.40;99924.75;4481522;28;20073;-47
2024/04/07 01:46:24;;;;;;;0.75;0.40;;;;;;;21.99;32.36;99923.91;4479488;28;20181;-47
2024/04/07 01:48:35;;;;;;;0.98;0.55;;;;;;;21.99;32.81;99921.03;4478808;28;20500;-48
2024/04/07 01:50:47;;;;;;;0.70;0.50;;;;;;;21.99;32.78;99926.00;4479193;28;22473;-48
2024/04/07 01:52:58;;;;;;;0.80;0.50;;;;;;;22.00;32.57;99934.22;4480555;28;20042;-48
2024/04/07 01:55:08;;;;;;;0.57;0.55;;;;;;;22.00;32.49;99939.97;4478767;28;20399;-49
2024/04/07 01:57:19;;;;;;;1.10;0.50;;;;;;;21.99;32.74;99952.66;4478228;28;20062;-47
2024/04/07 01:59:29;;;;;;;0.98;0.63;;;;;;;22.00;33.09;99957.19;4478759;28;20547;-46
2024/04/07 02:01:39;;;;;;;0.70;0.50;;;;;;;22.00;33.01;99957.19;4463056;28;20524;-49
2024/04/07 02:03:50;;;;;;;1.65;0.50;;;;;;;22.00;33.13;99960.06;4480050;28;20050;-47
2024/04/07 02:06:00;;;;;;;2.63;0.80;;;;;;;22.00;33.04;99974.44;4478634;28;20043;-47
2024/04/07 02:08:11;;;;;;;0.65;0.57;;;;;;;21.99;33.00;99971.97;4478884;28;20041;-49
2024/04/07 02:10:22;;;;;;;0.85;0.50;;;;;;;21.99;33.52;99969.91;4477948;28;20034;-47
2024/04/07 02:12:35;;;;;;;0.65;0.50;;;;;;;21.99;33.43;99972.78;4478726;28;20046;-47
2024/04/07 02:14:45;;;;;;;1.17;0.47;;;;;;;21.99;33.92;99978.53;4478311;28;20125;-47
2024/04/07 02:16:56;;;;;;;0.50;0.45;;;;;;;21.99;33.89;99978.53;4477964;28;20463;-47
2024/04/07 02:19:07;;;;;;;1.05;0.50;;;;;;;21.99;33.85;99984.25;4479529;28;20029;-46
2024/04/07 02:21:17;;;;;;;0.63;0.50;;;;;;;22.00;33.40;99985.09;4477349;28;20034;-46
2024/04/07 02:23:27;;;;;;;1.30;0.50;;;;;;;21.98;33.75;99988.38;4479878;28;20880;-46
2024/04/07 02:25:38;;;;;;;0.90;0.40;;;;;;;21.99;33.32;99984.25;4478578;28;20449;-46
2024/04/07 02:27:49;;;;;;;1.38;0.60;;;;;;;21.99;33.83;99989.22;4478472;28;20035;-46
2024/04/07 02:29:59;;;;;;;0.63;0.50;;;;;;;21.99;33.48;99995.75;4479223;28;20483;-47
2024/04/07 02:32:09;;;;;;;0.77;0.50;;;;;;;21.99;34.65;100013.00;4479112;28;20043;-48
2024/04/07 02:34:20;;;;;;;1.58;0.70;;;;;;;21.99;33.82;100012.19;4478896;28;20168;-46
2024/04/07 02:36:31;;;;;;;1.33;0.70;;;;;;;21.98;34.05;100005.63;4478108;28;20043;-48
2024/04/07 02:38:42;;;;;;;1.55;0.63;;;;;;;21.98;33.82;99994.13;4479047;28;20035;-47
2024/04/07 02:40:53;;;;;;;1.55;0.60;;;;;;;21.97;34.74;99995.34;4477529;28;20549;-47
2024/04/07 02:43:03;;;;;;;0.73;0.50;;;;;;;21.99;34.55;100003.56;4478421;28;20031;-47
2024/04/07 02:50:11;;;;;;;0.82;0.57;;;;;;;21.98;33.84;100001.91;4478462;28;20097;-47
2024/04/07 02:52:22;;;;;;;1.65;0.60;;;;;;;21.98;33.68;100005.63;4461980;28;20033;-47
2024/04/07 02:54:32;;;;;;;1.08;0.50;;;;;;;21.97;33.71;100003.97;4477540;28;20461;-47
2024/04/07 02:56:43;;;;;;;0.85;0.57;;;;;;;21.97;33.91;100009.72;4478801;28;20613;-47
2024/04/07 02:58:53;;;;;;;1.42;0.50;;;;;;;21.97;34.10;100015.47;4477533;28;20046;-47
2024/04/07 03:01:04;;;;;;;1.00;0.50;;;;;;;21.98;33.73;100022.84;4478576;28;22666;-48
2024/04/07 03:03:15;;;;;;;1.75;0.57;;;;;;;21.98;33.96;100022.84;4478292;28;20098;-47
2024/04/07 03:05:25;;;;;;;0.90;0.50;;;;;;;21.97;33.77;100031.88;4478731;28;20448;-47
2024/04/07 03:07:36;;;;;;;0.40;0.40;;;;;;;21.99;33.94;100032.31;4477674;28;20078;-51
2024/04/07 03:09:46;;;;;;;0.90;0.50;;;;;;;21.98;33.81;100045.00;4478748;28;20034;-47
2024/04/07 03:11:57;;;;;;;1.80;0.57;;;;;;;21.98;34.28;100051.59;4476578;28;20431;-48
2024/04/07 03:14:07;;;;;;;1.00;0.52;;;;;;;21.97;34.28;100055.69;4479433;28;20487;-46
2024/04/07 03:16:17;;;;;;;1.30;0.55;;;;;;;21.98;33.76;100059.38;4478551;28;24987;-47
2024/04/07 03:18:28;;;;;;;0.75;0.45;;;;;;;21.97;34.14;100055.69;4478739;28;20337;-47
2024/04/07 03:20:38;;;;;;;1.33;0.40;;;;;;;21.97;33.75;100066.34;4477258;28;20118;-46
2024/04/07 03:22:48;;;;;;;1.75;0.63;;;;;;;21.97;34.11;100067.19;4478032;28;20501;-48
2024/04/07 03:24:59;;;;;;;0.80;0.50;;;;;;;21.97;33.87;100072.94;4476956;28;21638;-47
2024/04/07 03:27:10;;;;;;;0.82;0.50;;;;;;;21.97;33.94;100072.94;4476820;28;20035;-48
2024/04/07 03:29:20;;;;;;;0.80;0.43;;;;;;;21.95;34.29;100086.00;4465599;28;20246;-47
2024/04/07 03:31:31;;;;;;;0.65;0.50;;;;;;;21.97;33.96;100086.47;4477124;28;20113;-48
2024/04/07 03:33:41;;;;;;;0.45;0.45;;;;;;;21.96;34.15;100094.25;4477802;28;20126;-48
2024/04/07 03:36:02;;;;;;;0.88;0.40;;;;;;;21.96;34.03;100093.44;4478154;28;20035;-46
2024/04/07 03:38:13;;;;;;;1.70;0.55;;;;;;;21.96;34.08;100104.94;4478086;28;20084;-47
2024/04/07 03:40:23;;;;;;;0.77;0.60;;;;;;;21.96;34.37;100116.44;4478014;28;20266;-46
2024/04/07 03:42:34;;;;;;;0.68;0.50;;;;;;;21.96;34.20;100114.38;4476820;28;20039;-48
2024/04/07 03:44:44;;;;;;;2.17;0.60;;;;;;;21.96;34.54;100120.09;4460153;28;20051;-49
2024/04/07 03:46:57;;;;;;;0.85;0.57;;;;;;;21.96;34.59;100140.22;4477705;28;20039;-47
2024/04/07 03:49:08;;;;;;;2.30;0.60;;;;;;;21.95;34.68;100144.31;4477565;28;20619;-48
2024/04/07 03:51:18;;;;;;;1.70;0.60;;;;;;;21.96;34.34;100159.53;4477851;28;20038;-47
2024/04/07 03:53:28;;;;;;;1.42;0.50;;;;;;;21.96;34.61;100166.09;4478504;28;20041;-46
2024/04/07 03:55:39;;;;;;;1.52;0.50;;;;;;;21.96;34.92;100171.84;4476034;28;20038;-46
2024/04/07 03:57:49;;;;;;;1.52;0.57;;;;;;;21.96;35.21;100180.47;4477806;28;20071;-51
2024/04/07 04:00:00;;;;;;;0.55;0.50;;;;;;;21.96;35.44;100180.47;4476485;28;20049;-50
2024/04/07 04:02:19;;;;;;;1.48;0.50;;;;;;;21.96;35.82;100188.28;4477991;28;20039;-46
2024/04/07 04:04:31;;;;;;;0.75;0.50;;;;;;;21.96;36.05;100185.41;4477047;28;20585;-48
2024/04/07 04:06:41;;;;;;;1.02;0.60;;;;;;;21.95;35.90;100190.31;4460015;28;20043;-51
2024/04/07 04:08:52;;;;;;;0.95;0.50;;;;;;;21.95;36.33;100207.53;4461439;28;20039;-48
2024/04/07 04:11:04;;;;;;;1.73;0.60;;;;;;;21.95;36.36;100200.97;4477354;28;20027;-49
2024/04/07 04:13:16;;;;;;;1.40;0.60;;;;;;;21.95;36.72;100204.66;4478028;28;20035;-47
2024/04/07 04:15:27;;;;;;;1.17;0.70;;;;;;;21.94;36.78;100211.66;4476684;28;20039;-46
2024/04/07 04:17:37;;;;;;;1.65;0.63;;;;;;;21.95;36.96;100213.28;4477612;28;20045;-47
2024/04/07 04:19:48;;;;;;;1.15;0.70;;;;;;;21.95;36.83;100229.69;4477169;28;20039;-46
2024/04/07 04:21:58;;;;;;;1.40;0.60;;;;;;;21.95;37.23;100252.69;4478718;28;20058;-48
2024/04/07 04:24:08;;;;;;;1.70;0.60;;;;;;;21.94;37.25;100274.03;4476697;28;28362;-47
2024/04/07 04:26:19;;;;;;;1.67;0.60;;;;;;;21.94;37.53;100286.34;4476521;28;20039;-48
2024/04/07 04:28:29;;;;;;;2.15;0.80;;;;;;;21.94;38.06;100268.28;4478151;28;20456;-46
2024/04/07 04:30:40;;;;;;;1.10;0.70;;;;;;;21.93;38.13;100284.69;4477848;28;20067;-49
2024/04/07 04:32:53;;;;;;;1.52;0.82;;;;;;;21.94;38.51;100309.34;4475124;28;20078;-47
2024/04/07 04:35:05;;;;;;;1.00;0.70;;;;;;;21.94;38.44;100312.22;4476867;28;20042;-48
2024/04/07 04:37:17;;;;;;;1.00;0.73;;;;;;;21.94;38.63;100325.75;4478015;28;20089;-47
2024/04/07 04:39:27;;;;;;;1.75;0.65;;;;;;;21.93;39.03;100336.41;4477376;28;20038;-46
2024/04/07 04:41:38;;;;;;;1.13;0.60;;;;;;;21.93;39.51;100301.91;4478088;28;21080;-47
2024/04/07 04:43:48;;;;;;;1.00;0.70;;;;;;;21.94;39.63;100343.00;4476428;28;21135;-47
2024/04/07 04:46:03;;;;;;;1.95;0.80;;;;;;;21.93;40.09;100330.66;4476939;28;20042;-47
2024/04/07 04:48:13;;;;;;;1.75;0.50;;;;;;;21.93;40.28;100347.91;4477209;28;20027;-47
2024/04/07 04:50:23;;;;;;;1.45;0.70;;;;;;;21.91;40.55;100344.56;4480390;28;20035;-47
2024/04/07 04:52:34;;;;;;;1.83;0.80;;;;;;;21.92;40.56;100351.16;4466269;28;20039;-46
2024/04/07 04:54:44;;;;;;;1.73;0.60;;;;;;;21.93;40.48;100358.56;4481619;28;20484;-47
2024/04/07 04:56:55;;;;;;;2.38;0.80;;;;;;;21.92;40.63;100357.75;4479481;28;20447;-47
2024/04/07 04:59:05;;;;;;;1.27;0.60;;;;;;;21.93;40.74;100353.66;4480462;28;20030;-48
2024/04/07 05:01:16;;;;;;;1.45;0.73;;;;;;;21.91;41.15;100358.94;4479722;28;20163;-50
2024/04/07 05:03:28;;;;;;;1.85;0.70;;;;;;;21.93;41.39;100352.81;4480264;28;20601;-47
2024/04/07 05:05:38;;;;;;;0.95;0.60;;;;;;;21.93;41.00;100344.19;4478638;28;20041;-49
2024/04/07 05:07:51;;;;;;;1.52;0.80;;;;;;;21.93;41.08;100345.03;4480855;28;20501;-47
2024/04/07 05:10:03;;;;;;;1.10;0.70;;;;;;;21.93;41.53;100352.81;4479596;28;20137;-46
2024/04/07 05:12:13;;;;;;;1.05;0.80;;;;;;;21.93;41.53;100370.88;4480590;28;20636;-47
2024/04/07 05:14:23;;;;;;;1.17;0.70;;;;;;;21.93;41.39;100373.75;4480231;28;20046;-46
2024/04/07 05:16:34;;;;;;;0.98;0.70;;;;;;;21.93;41.75;100382.38;4479751;28;20045;-47
2024/04/07 05:18:44;;;;;;;1.20;0.60;;;;;;;21.92;41.79;100386.47;4479026;28;20031;-46
2024/04/07 05:20:55;;;;;;;1.27;0.50;;;;;;;21.93;41.77;100387.28;4480089;28;20034;-48
2024/04/07 05:23:06;;;;;;;1.58;0.70;;;;;;;21.92;41.73;100377.84;4461612;28;20039;-47
2024/04/07 05:25:16;;;;;;;1.42;0.65;;;;;;;21.88;41.81;100362.56;4478383;28;20043;-48
2024/04/07 05:27:27;;;;;;;2.17;0.60;;;;;;;21.93;41.58;100367.16;4479190;28;20467;-48
2024/04/07 05:29:37;;;;;;;0.68;0.52;;;;;;;21.93;41.34;100370.88;4480182;28;20030;-49
2024/04/07 05:31:50;;;;;;;1.23;0.57;;;;;;;21.94;41.35;100391.84;4478844;28;20043;-48
2024/04/07 05:34:00;;;;;;;0.52;0.45;;;;;;;21.92;41.36;100397.97;4479197;28;20122;-46
2024/04/07 05:36:11;;;;;;;0.88;0.50;;;;;;;21.92;41.10;100415.22;4480422;28;20103;-48
2024/04/07 05:38:21;;;;;;;1.17;0.50;;;;;;;21.93;41.75;100411.13;4478942;28;20077;-49
2024/04/07 05:40:31;;;;;;;1.23;0.50;;;;;;;21.92;41.29;100415.22;4479206;28;20042;-46
2024/04/07 05:42:42;;;;;;;1.23;0.60;;;;;;;21.92;41.35;100420.97;4478871;28;20042;-50
2024/04/07 05:44:53;;;;;;;1.50;0.50;;;;;;;21.92;41.63;100425.88;4478535;28;20035;-47
2024/04/07 05:47:03;;;;;;;0.73;0.50;;;;;;;21.93;41.70;100431.22;4479188;28;20038;-48
2024/04/07 05:49:14;;;;;;;1.17;0.50;;;;;;;21.92;41.75;100420.97;4480010;28;20086;-46
2024/04/07 05:51:24;;;;;;;0.90;0.50;;;;;;;21.92;42.20;100420.97;4479289;28;20031;-46
2024/04/07 05:53:35;;;;;;;1.00;0.70;;;;;;;21.93;41.95;100427.53;4479957;28;20161;-47
2024/04/07 05:55:45;;;;;;;0.65;0.57;;;;;;;21.93;42.24;100421.78;4461789;28;20030;-48
2024/04/07 05:57:55;;;;;;;1.77;0.50;;;;;;;21.92;42.43;100443.94;4479650;28;20043;-47
2024/04/07 06:00:10;;;;;;;1.58;0.50;;;;;;;21.92;41.76;100461.19;4478061;28;20023;-47
2024/04/07 06:02:23;;;;;;;1.42;0.60;;;;;;;21.92;41.82;100458.31;4480024;28;20503;-47
2024/04/07 06:04:34;;;;;;;1.38;0.50;;;;;;;21.92;42.10;100466.09;4479762;28;20383;-48
2024/04/07 06:06:47;;;;;;;0.80;0.60;;;;;;;21.92;42.29;100455.44;4479368;28;20126;-49
2024/04/07 06:08:57;;;;;;;0.73;0.50;;;;;;;21.92;42.30;100455.44;4478644;28;20039;-48
2024/04/07 06:11:08;;;;;;;0.80;0.50;;;;;;;21.92;42.34;100458.31;4479205;28;20046;-48
2024/04/07 06:13:18;;;;;;;0.98;0.45;;;;;;;21.93;42.37;100470.63;4478589;28;20570;-48
2024/04/07 06:15:29;;;;;;;0.70;0.50;;;;;;;21.92;42.55;100461.19;4479937;28;20042;-47
2024/04/07 06:17:39;;;;;;;1.00;0.47;;;;;;;21.93;42.35;100470.63;4461070;28;20071;-47
2024/04/07 06:19:50;;;;;;;0.73;0.43;;;;;;;21.92;42.36;100484.19;4480099;28;20045;-47
2024/04/07 06:22:00;;;;;;;0.65;0.52;;;;;;;21.93;42.67;100485.00;4477945;28;20039;-47
2024/04/07 06:24:11;;;;;;;1.17;0.60;;;;;;;21.91;42.53;100493.19;4480058;28;20069;-47
2024/04/07 06:26:22;;;;;;;1.70;0.60;;;;;;;21.92;42.93;100489.94;4465457;28;20037;-48
2024/04/07 06:28:32;;;;;;;0.85;0.65;;;;;;;21.89;42.99;100490.69;4478943;28;20052;-48
2024/04/07 06:30:43;;;;;;;1.17;0.70;;;;;;;21.94;43.34;100492.44;4479599;28;20041;-47
2024/04/07 06:32:53;;;;;;;0.85;0.40;;;;;;;21.92;44.21;100487.06;4467330;28;20525;-48
2024/04/07 06:35:04;;;;;;;0.50;0.50;;;;;;;21.93;44.69;100487.88;4478222;28;20039;-47
2024/04/07 06:37:14;;;;;;;1.15;0.55;;;;;;;21.92;44.33;100478.44;4478239;28;20034;-50
2024/04/07 06:39:25;;;;;;;0.95;0.52;;;;;;;21.93;44.69;100479.25;4478789;28;20030;-47
2024/04/07 06:41:35;;;;;;;0.43;0.40;;;;;;;21.91;45.46;100481.69;4479177;28;20518;-48
2024/04/07 06:43:45;;;;;;;1.02;0.52;;;;;;;21.91;44.55;100478.81;4478045;28;20226;-47
2024/04/07 06:45:59;;;;;;;1.55;0.68;;;;;;;21.89;44.76;100461.13;4479126;28;20041;-48
2024/04/07 06:48:09;;;;;;;1.55;0.60;;;;;;;21.90;44.51;100498.09;4479075;28;20817;-47
2024/04/07 06:50:20;;;;;;;1.27;0.60;;;;;;;21.90;44.46;100480.84;4478819;28;20049;-47
2024/04/07 06:52:30;;;;;;;1.27;0.60;;;;;;;21.90;45.22;100471.38;4462303;28;20036;-46
2024/04/07 06:54:41;;;;;;;1.15;0.60;;;;;;;21.89;45.12;100470.56;4477786;28;20069;-47
2024/04/07 06:56:51;;;;;;;0.98;0.80;;;;;;;21.90;44.81;100460.72;4477915;28;20031;-47
2024/04/07 06:59:02;;;;;;;1.10;0.70;;;;;;;21.89;45.09;100447.59;4478826;28;20522;-49
2024/04/07 07:01:13;;;;;;;1.02;0.60;;;;;;;21.90;45.08;100460.72;4479131;28;20180;-50
2024/04/07 07:03:24;;;;;;;0.65;0.60;;;;;;;21.89;44.98;100456.22;4478261;28;20149;-47
2024/04/07 07:05:34;;;;;;;1.33;0.70;;;;;;;21.90;45.12;100457.03;4476550;28;20069;-47
2024/04/07 07:07:45;;;;;;;1.92;0.70;;;;;;;21.89;45.51;100450.47;4478126;28;20066;-47
2024/04/07 07:09:55;;;;;;;1.42;0.70;;;;;;;21.89;45.57;100436.09;4477915;28;20046;-48
2024/04/07 07:12:06;;;;;;;1.20;0.68;;;;;;;21.90;45.82;100423.38;4477567;28;20613;-48
2024/04/07 07:14:16;;;;;;;1.60;0.80;;;;;;;21.90;45.37;100416.78;4478166;28;20039;-47
2024/04/07 07:16:26;;;;;;;0.90;0.80;;;;;;;21.89;45.71;100424.59;4477362;28;20087;-47
2024/04/07 07:18:37;;;;;;;1.63;0.77;;;;;;;21.90;45.52;100455.00;4478008;28;20046;-47
2024/04/07 07:20:48;;;;;;;1.83;0.70;;;;;;;21.90;45.75;100454.16;4477264;28;20047;-48
2024/04/07 07:22:58;;;;;;;0.75;0.60;;;;;;;21.90;45.95;100446.38;4478272;28;20595;-50
2024/04/07 07:25:09;;;;;;;1.45;0.60;;;;;;;21.89;46.44;100435.25;4477842;28;20046;-48
2024/04/07 07:27:19;;;;;;;1.67;0.80;;;;;;;21.90;46.35;100426.25;4478093;28;20471;-47
2024/04/07 07:29:29;;;;;;;1.70;0.80;;;;;;;21.88;46.32;100424.97;4477555;28;20526;-47
2024/04/07 07:31:40;;;;;;;0.93;0.60;;;;;;;21.92;46.72;100443.09;4464765;28;20039;-48
2024/04/07 07:33:50;;;;;;;1.35;0.60;;;;;;;21.92;46.46;100455.44;4477497;28;20027;-46
2024/04/07 07:36:00;;;;;;;1.92;0.80;;;;;;;21.90;46.75;100455.00;4478157;28;20064;-47
2024/04/07 07:38:11;;;;;;;1.70;0.65;;;;;;;21.91;46.79;100458.69;4475842;28;20106;-47
2024/04/07 07:40:22;;;;;;;2.00;0.88;;;;;;;21.90;47.03;100455.00;4477757;28;20035;-47
2024/04/07 07:42:32;;;;;;;1.67;0.63;;;;;;;21.91;47.05;100462.38;4471574;28;20137;-49
2024/04/07 07:44:43;;;;;;;2.50;1.00;;;;;;;21.92;46.83;100463.22;4465644;28;20157;-49
2024/04/07 07:46:59;;;;;;;1.45;0.70;;;;;;;21.91;46.90;100468.13;4462035;28;20896;-48
2024/04/07 07:49:10;;;;;;;1.27;0.90;;;;;;;21.93;47.09;100462.84;4465710;28;20086;-47
2024/04/07 07:51:20;;;;;;;2.58;0.82;;;;;;;21.93;46.63;100462.84;4477592;28;20510;-47
2024/04/07 07:53:31;;;;;;;1.27;0.73;;;;;;;21.92;47.00;100468.97;4459409;28;20032;-47
2024/04/07 07:55:42;;;;;;;1.38;0.70;;;;;;;21.90;47.25;100469.34;4478036;28;20129;-47
2024/04/07 07:57:52;;;;;;;1.63;0.80;;;;;;;21.93;47.32;100480.09;4477385;28;20542;-48
2024/04/07 08:00:05;;;;;;;2.75;0.80;;;;;;;21.93;47.01;100482.97;4463671;28;20054;-49
2024/04/07 08:02:19;;;;;;;1.15;0.80;;;;;;;21.93;47.64;100476.38;4475165;28;20158;-49
2024/04/07 08:04:30;;;;;;;1.40;0.82;;;;;;;21.93;47.29;100490.75;4476408;28;20042;-47
2024/04/07 08:06:41;;;;;;;1.83;0.70;;;;;;;21.93;47.41;100491.59;4478575;28;20022;-49
2024/04/07 08:08:52;;;;;;;1.63;0.90;;;;;;;21.93;47.25;100482.13;4478897;28;20141;-47
2024/04/07 08:11:03;;;;;;;1.33;0.80;;;;;;;21.93;47.59;100482.97;4478035;28;20534;-48
2024/04/07 08:13:14;;;;;;;1.13;0.70;;;;;;;21.93;47.57;100480.09;4478129;28;20043;-48
2024/04/07 08:15:24;;;;;;;0.98;0.68;;;;;;;21.95;47.40;100488.31;4478249;28;20391;-48
2024/04/07 08:17:34;;;;;;;1.52;0.82;;;;;;;21.95;47.75;100485.44;4479345;28;20534;-48
2024/04/07 08:19:46;;;;;;;1.77;0.77;;;;;;;21.92;47.30;100483.34;4477862;28;20510;-48
2024/04/07 08:21:56;;;;;;;1.45;0.80;;;;;;;21.94;47.71;100499.00;4477334;28;20041;-48
2024/04/07 08:24:06;;;;;;;1.33;0.82;;;;;;;21.94;47.42;100499.00;4477964;28;20057;-50
2024/04/07 08:26:18;;;;;;;2.42;0.90;;;;;;;21.95;48.04;100496.94;4480033;28;20030;-50
2024/04/07 08:28:30;;;;;;;1.58;0.70;;;;;;;21.95;47.57;100500.66;4481024;28;20612;-48
2024/04/07 08:30:40;;;;;;;1.73;0.75;;;;;;;21.96;48.11;100498.63;4480203;28;20498;-48
2024/04/07 08:32:51;;;;;;;2.25;0.80;;;;;;;21.96;47.77;100495.75;4480352;28;20035;-51
2024/04/07 08:35:01;;;;;;;1.85;0.90;;;;;;;21.95;48.15;100503.53;4479570;28;20086;-49
2024/04/07 08:37:11;;;;;;;1.40;0.73;;;;;;;21.97;48.01;100511.78;4464534;28;20047;-48
2024/04/07 08:39:22;;;;;;;1.35;0.82;;;;;;;21.96;48.21;100519.56;4482249;28;20023;-48
2024/04/07 08:41:32;;;;;;;0.98;0.75;;;;;;;21.97;47.98;100520.41;4481444;28;20101;-52
2024/04/07 08:43:47;;;;;;;1.48;0.70;;;;;;;21.95;47.74;100511.31;4480339;28;20046;-48
2024/04/07 08:45:58;;;;;;;1.52;0.75;;;;;;;21.96;45.99;100513.81;4480785;28;20050;-48
2024/04/07 08:48:11;;;;;;;1.80;0.85;;;;;;;21.96;45.78;100505.19;4479345;28;20419;-48
2024/04/07 08:50:22;;;;;;;1.50;0.70;;;;;;;21.96;45.15;100508.06;4479963;28;20130;-48
2024/04/07 08:52:33;;;;;;;1.17;0.80;;;;;;;21.96;44.80;100519.56;4463095;28;20043;-48
2024/04/07 08:54:43;;;;;;;2.10;0.60;;;;;;;21.96;44.90;100508.06;4479888;28;20034;-46
2024/04/07 08:56:57;;;;;;;1.92;0.80;;;;;;;21.96;44.87;100518.75;4481029;28;20066;-49
2024/04/07 08:59:07;;;;;;;1.33;0.60;;;;;;;21.95;44.09;100517.91;4481718;28;20035;-47
2024/04/07 09:01:20;;;;;;;1.23;0.50;;;;;;;21.95;43.90;100520.78;4478424;28;20043;-49
2024/04/07 09:03:31;;;;;;;1.83;0.70;;;;;;;21.96;43.59;100518.75;4480101;28;20875;-49
2024/04/07 09:05:41;;;;;;;0.60;0.47;;;;;;;21.95;43.66;100540.91;4476684;28;20090;-50
2024/04/07 09:07:52;;;;;;;1.45;0.60;;;;;;;21.95;43.59;100540.06;4478232;28;20034;-48
2024/04/07 09:10:02;;;;;;;1.23;0.50;;;;;;;21.96;43.01;100542.56;4479155;28;20034;-52
2024/04/07 09:12:13;;;;;;;0.77;0.60;;;;;;;21.96;43.85;100525.31;4473140;28;20035;-48
2024/04/07 09:14:27;;;;;;;0.50;0.40;;;;;;;21.96;43.45;100541.75;4481258;28;20043;-50
2024/04/07 09:16:38;;;;;;;0.80;0.60;;;;;;;21.96;42.46;100533.13;4478583;28;20031;-51
2024/04/07 09:18:49;;;;;;;0.77;0.40;;;;;;;21.95;42.39;100540.91;4480248;28;20043;-49
2024/04/07 09:20:59;;;;;;;0.77;0.40;;;;;;;21.96;41.31;100553.22;4478862;28;20061;-48
2024/04/07 09:23:09;;;;;;;0.82;0.40;;;;;;;21.96;40.94;100562.66;4480738;28;20038;-56
2024/04/07 09:25:20;;;;;;;1.10;0.50;;;;;;;21.97;40.72;100564.34;4479272;28;20120;-60
2024/04/07 09:27:30;;;;;;;0.55;0.40;;;;;;;21.99;40.41;100556.16;4480214;28;20027;-61
2024/04/07 09:29:41;;;;;;;0.80;0.45;;;;;;;22.00;40.16;100543.47;4480903;28;20089;-59
2024/04/07 09:31:52;;;;;;;0.88;0.50;;;;;;;22.02;40.00;100543.91;4479212;28;20484;-57
2024/04/07 09:34:03;;;;;;;0.90;0.40;;;;;;;22.03;39.88;100554.22;4481020;28;20034;-49
2024/04/07 09:36:13;;;;;;;0.88;0.40;;;;;;;22.03;39.79;100554.22;4477995;28;20043;-50
2024/04/07 09:38:24;;;;;;;0.68;0.40;;;;;;;22.06;40.24;100546.88;4477692;28;20058;-51
2024/04/07 09:40:37;;;;;;;0.90;0.30;;;;;;;22.04;39.98;100544.38;4479439;28;20122;-51
2024/04/07 09:42:51;;;;;;;0.50;0.30;;;;;;;22.02;39.64;100529.53;4479889;28;20042;-48
2024/04/07 09:45:02;;;;;;;0.47;0.30;;;;;;;22.05;39.83;100528.81;4478278;28;20122;-51
2024/04/07 09:47:14;;;;;;;0.90;0.40;;;;;;;22.04;39.83;100532.88;4480543;28;20039;-46
2024/04/07 09:49:30;;;;;;;0.47;0.40;;;;;;;22.05;40.28;100523.06;4479538;28;20102;-47
2024/04/07 09:51:44;;;;;;;0.52;0.40;;;;;;;22.07;40.70;100525.56;4478880;28;20060;-51
2024/04/07 09:53:59;;;;;;;0.98;0.35;;;;;;;22.06;40.08;100518.97;4479501;28;20045;-47
2024/04/07 09:56:11;;;;;;;0.40;0.40;;;;;;;22.06;40.74;100524.72;4480102;28;20122;-50
2024/04/07 09:58:23;;;;;;;0.52;0.30;;;;;;;22.08;40.77;100516.56;4479862;28;20030;-50
2024/04/07 10:00:35;;;;;;;0.60;0.50;;;;;;;22.10;40.99;100533.41;4461316;28;20042;-50
2024/04/07 10:02:45;;;;;;;0.93;0.40;;;;;;;22.11;41.13;100524.41;4478816;28;20035;-47
2024/04/07 10:04:56;;;;;;;2.35;0.60;;;;;;;22.11;40.80;100527.28;4480485;28;20039;-47
2024/04/07 10:07:11;;;;;;;0.40;0.40;;;;;;;22.12;41.46;100528.09;4479304;28;20046;-49
2024/04/07 10:09:22;;;;;;;0.88;0.40;;;;;;;22.12;41.29;100528.94;4480687;28;20034;-51
2024/04/07 10:11:33;;;;;;;0.63;0.40;;;;;;;22.12;41.83;100528.09;4480078;28;20088;-47
2024/04/07 10:13:44;;;;;;;0.60;0.30;;;;;;;22.12;41.26;100534.69;4479147;28;20042;-50
2024/04/07 10:15:58;;;;;;;0.65;0.35;;;;;;;22.10;41.07;100514.09;4478903;28;20078;-49